Accueil
METAR-TAF:

METAR-TAF

Aéroports :

Base aérienne de Nörvenich

Nörvenich, Allemagne

latitude: 50-50N, longitude: 006-40E, altitude: 118 m

Observation

Le bulletin a été fait il y a 56 minutes, à 18:20 UTC
Vent 3 kt de nord/nord-ouest
Température 21°C
Humidité 38%
Pression 1017 hPa
Visibilité 10 km ou plus
Nuages épars à une hauteur de 30000 ft

METAR: ETNN 041820Z 33003KT 9999 SCT300 21/06 Q1017 BLU+

Heure: 21:16 (19:16 UTC)

Prévision

Le bulletin a été fait il y a 5 heures et 57 minutes, à 13:19 UTC
Prévision valable du 04 à 14 UTC au 04 à 23 UTC
Vent 7 kt de nord-ouest
Visibilité 10 km ou plus
Nuages épars à une hauteur de 6000 ft

TAF: ETNN 041319Z 0414/0423 31007KT 9999 NSW SCT060 BY ETGL

Observations et prévisions météorologiques de plus de 4000 aéroports (messages METAR et TAF).

Les stations disponibles sont représentées par des disques jaunes et rouges sur la carte.

Passer la souris dessus pour voir le nom de la station.

Cliquer dessus pour voir les observations et prévisions météorologiques.

Pour changer de carte: cliquez sur les boutons verts avec une croix noire pour zoomer, sur le bouton vert avec un tiret pour effectuer un zoom arrière, ou sur les flèches vertes pour les cartes adjacentes.


METAR-TAF: